Time;durP1;ratioP1;P1;durP2;ratioP2;P2;SDS_P1;SDS_P2;PMS_P1;PMS_P2;Temp;Humidity;BMP_temperature;BMP_pressure;BME280_temperature;BME280_humidity;BME280_pressure;Samples;Min_cycle;Max_cycle;Signal;HPM_P1;HPM_P2
2021/12/08 00:01:12;;;;;;;12.60;10.77;;;-0.10;99.90;;;;;;5023396;28;20170;-73
2021/12/08 00:03:38;;;;;;;12.88;10.25;;;-0.10;99.90;;;;;;5022649;28;20018;-73
2021/12/08 00:06:05;;;;;;;13.55;11.02;;;0.00;99.90;;;;;;5023403;28;20021;-73
2021/12/08 00:08:33;;;;;;;12.57;10.93;;;-0.10;99.90;;;;;;5021985;28;20018;-73
2021/12/08 00:13:35;;;;;;;11.15;9.35;;;-0.20;99.90;;;;;;5021569;28;20018;-72
2021/12/08 00:16:07;;;;;;;12.75;9.60;;;-0.10;99.90;;;;;;5012785;28;20029;-73
2021/12/08 00:18:34;;;;;;;13.05;9.27;;;-0.10;99.90;;;;;;5016478;28;20034;-73
2021/12/08 00:21:03;;;;;;;9.68;8.55;;;-0.20;99.90;;;;;;5013545;28;20683;-74
2021/12/08 00:23:29;;;;;;;9.43;8.43;;;-0.20;99.90;;;;;;5031540;28;20029;-72
2021/12/08 00:25:56;;;;;;;9.82;8.82;;;-0.30;99.90;;;;;;5018336;28;20100;-72
2021/12/08 00:28:22;;;;;;;11.70;9.32;;;-0.30;99.90;;;;;;5024239;28;20411;-73
2021/12/08 00:30:52;;;;;;;10.93;8.70;;;-0.20;99.90;;;;;;5025122;28;20033;-72
2021/12/08 00:33:18;;;;;;;10.85;9.45;;;-0.20;99.90;;;;;;5020942;28;20052;-71
2021/12/08 00:35:46;;;;;;;9.82;8.85;;;-0.20;99.90;;;;;;5016524;28;20439;-72
2021/12/08 00:38:13;;;;;;;10.88;9.07;;;-0.10;99.90;;;;;;5025520;28;20091;-73
2021/12/08 00:40:39;;;;;;;9.60;8.70;;;-0.10;99.90;;;;;;5030945;28;20104;-73
2021/12/08 00:43:06;;;;;;;10.75;8.50;;;-0.10;99.90;;;;;;5015740;28;20460;-73
2021/12/08 00:45:33;;;;;;;9.27;8.18;;;-0.10;99.90;;;;;;5014101;28;20621;-74
2021/12/08 00:47:59;;;;;;;10.00;9.00;;;0.00;99.90;;;;;;5015587;28;20022;-73
2021/12/08 00:50:28;;;;;;;10.18;9.07;;;-0.10;99.90;;;;;;5015399;28;20084;-74
2021/12/08 00:52:54;;;;;;;11.07;9.82;;;0.00;99.90;;;;;;5015558;28;20026;-74
2021/12/08 00:55:20;;;;;;;12.82;10.75;;;0.00;99.90;;;;;;5014052;28;20058;-73
2021/12/08 00:57:46;;;;;;;12.48;11.18;;;-0.10;99.90;;;;;;5014297;28;20096;-70
2021/12/08 01:00:16;;;;;;;14.52;11.18;;;0.00;99.90;;;;;;5028282;28;20029;-70
2021/12/08 01:02:42;;;;;;;13.65;11.18;;;0.00;99.90;;;;;;5024447;28;20014;-70
2021/12/08 01:05:16;;;;;;;14.73;11.90;;;0.00;99.90;;;;;;5021643;28;20108;-70
2021/12/08 01:07:42;;;;;;;14.15;11.25;;;0.00;99.90;;;;;;5023739;28;20022;-73
2021/12/08 01:10:12;;;;;;;14.38;12.38;;;0.00;99.90;;;;;;5028422;28;20393;-73
2021/12/08 01:12:38;;;;;;;14.30;12.20;;;0.00;99.90;;;;;;5027243;28;20029;-74
2021/12/08 01:15:04;;;;;;;12.98;11.60;;;0.00;99.90;;;;;;5029247;28;20030;-74
2021/12/08 01:17:30;;;;;;;14.80;12.57;;;0.00;99.90;;;;;;5014955;28;20515;-74
2021/12/08 01:19:56;;;;;;;12.65;11.20;;;0.00;99.90;;;;;;5033662;28;20033;-72
2021/12/08 01:22:21;;;;;;;14.18;11.20;;;0.00;99.90;;;;;;5033368;28;20071;-72
2021/12/08 01:24:47;;;;;;;14.13;12.00;;;0.10;99.90;;;;;;5034482;28;20064;-73
2021/12/08 01:27:12;;;;;;;13.73;11.30;;;0.10;99.90;;;;;;5034718;28;20025;-73
2021/12/08 01:29:39;;;;;;;12.52;11.30;;;0.10;99.90;;;;;;5033275;28;20025;-73
2021/12/08 01:32:07;;;;;;;13.45;11.32;;;0.10;99.90;;;;;;5034524;28;20468;-73
2021/12/08 01:34:32;;;;;;;13.88;11.88;;;0.10;99.90;;;;;;5022546;28;20060;-73
2021/12/08 01:36:58;;;;;;;12.88;11.43;;;0.10;99.90;;;;;;5014767;28;20054;-73
2021/12/08 01:39:24;;;;;;;14.68;10.93;;;0.10;99.90;;;;;;5014552;28;20053;-73
2021/12/08 01:41:52;;;;;;;13.35;11.77;;;0.10;99.90;;;;;;5014516;28;20030;-72
2021/12/08 01:47:02;;;;;;;13.05;10.45;;;0.20;99.90;;;;;;5019483;28;20088;-73
2021/12/08 01:49:28;;;;;;;11.93;10.40;;;0.20;99.90;;;;;;5014459;28;20018;-72
2021/12/08 01:51:53;;;;;;;12.52;10.55;;;0.20;99.90;;;;;;5014401;28;20072;-74
2021/12/08 01:54:19;;;;;;;13.32;10.55;;;0.20;99.90;;;;;;5014203;28;20069;-73
2021/12/08 01:56:45;;;;;;;13.77;10.65;;;0.20;99.90;;;;;;5014270;28;20076;-72
2021/12/08 01:59:11;;;;;;;12.88;10.65;;;0.30;99.90;;;;;;5014196;28;20030;-71
2021/12/08 02:01:39;;;;;;;10.68;9.50;;;0.30;99.90;;;;;;5014164;28;20076;-73
2021/12/08 02:04:06;;;;;;;14.05;9.88;;;0.30;99.90;;;;;;5022467;28;20025;-73
2021/12/08 02:06:37;;;;;;;12.75;10.20;;;0.30;99.90;;;;;;5032040;28;20014;-73
2021/12/08 02:09:06;;;;;;;11.68;9.52;;;0.30;99.90;;;;;;5012973;28;20026;-72
2021/12/08 02:11:32;;;;;;;12.27;10.10;;;0.30;99.90;;;;;;5013876;28;20022;-73
2021/12/08 02:14:01;;;;;;;11.13;9.93;;;0.30;99.90;;;;;;5022753;28;20519;-73
2021/12/08 02:16:28;;;;;;;11.90;9.93;;;0.30;99.90;;;;;;5028630;28;20033;-73
2021/12/08 02:18:54;;;;;;;9.75;8.75;;;0.30;99.90;;;;;;5014016;28;20115;-73
2021/12/08 02:21:30;;;;;;;12.50;10.00;;;0.30;99.90;;;;;;5025694;28;20030;-73
2021/12/08 02:23:58;;;;;;;11.93;10.73;;;0.40;99.90;;;;;;5024294;28;20021;-73
2021/12/08 02:26:25;;;;;;;11.38;9.93;;;0.60;99.90;;;;;;5014568;28;20030;-73
2021/12/08 02:28:52;;;;;;;11.13;9.20;;;0.40;99.90;;;;;;5012491;28;20107;-72
2021/12/08 02:31:27;;;;;;;10.30;9.38;;;0.40;99.90;;;;;;5032556;28;20021;-72
2021/12/08 02:47:53;;;;;;;10.23;9.10;;;0.50;99.90;;;;;;4948857;28;20058;-72
2021/12/08 02:50:27;;;;;;;11.13;8.75;;;0.50;99.90;;;;;;5004864;28;20616;-72
2021/12/08 02:52:53;;;;;;;10.20;7.78;;;0.60;99.90;;;;;;5012100;28;20033;-73
2021/12/08 02:55:20;;;;;;;9.90;7.43;;;0.60;99.90;;;;;;5027321;28;20029;-72
2021/12/08 02:57:45;;;;;;;7.95;7.03;;;0.60;99.90;;;;;;5032816;28;20825;-74
2021/12/08 03:00:17;;;;;;;9.00;7.82;;;0.60;99.90;;;;;;5031366;28;20033;-73
2021/12/08 03:02:43;;;;;;;8.55;7.72;;;0.60;99.90;;;;;;5031621;28;20032;-72
2021/12/08 03:05:09;;;;;;;8.60;7.70;;;0.70;99.90;;;;;;5032503;28;20026;-73
2021/12/08 03:07:35;;;;;;;9.68;7.40;;;0.70;99.90;;;;;;5032703;28;20021;-72
2021/12/08 03:10:10;;;;;;;9.73;7.50;;;0.60;99.90;;;;;;5029485;28;20079;-72
2021/12/08 03:12:36;;;;;;;10.32;7.47;;;0.60;99.90;;;;;;5013405;28;20029;-72
2021/12/08 03:15:02;;;;;;;11.10;8.05;;;0.70;99.90;;;;;;5012707;28;20033;-72
2021/12/08 03:17:28;;;;;;;10.95;8.30;;;0.70;99.90;;;;;;5012798;28;20025;-72
2021/12/08 03:19:54;;;;;;;9.15;7.63;;;0.70;99.90;;;;;;5012735;28;20053;-73
2021/12/08 03:22:20;;;;;;;9.15;7.20;;;0.70;99.90;;;;;;5012707;28;20377;-72
2021/12/08 03:24:47;;;;;;;9.20;7.70;;;0.70;99.90;;;;;;5012541;28;20018;-74
2021/12/08 03:27:17;;;;;;;9.15;6.88;;;0.70;99.90;;;;;;5022486;28;20557;-72
2021/12/08 03:29:57;;;;;;;8.63;7.25;;;0.70;99.90;;;;;;5019386;28;20024;-72
2021/12/08 03:32:37;;;;;;;8.02;6.97;;;0.80;99.90;;;;;;5019024;28;20383;-71
2021/12/08 03:35:06;;;;;;;10.60;8.57;;;0.80;99.90;;;;;;5017858;28;20651;-71
2021/12/08 03:37:36;;;;;;;8.10;7.30;;;0.70;99.90;;;;;;5025644;28;20408;-72
2021/12/08 03:40:10;;;;;;;9.13;7.15;;;0.70;99.90;;;;;;5022928;28;20408;-72
2021/12/08 03:42:38;;;;;;;11.27;7.05;;;0.70;99.90;;;;;;5027179;28;20021;-72
2021/12/08 03:45:10;;;;;;;9.23;7.65;;;0.60;99.90;;;;;;5024438;28;20025;-71
2021/12/08 03:47:43;;;;;;;13.68;10.77;;;0.60;99.90;;;;;;5025855;28;20026;-72
2021/12/08 03:50:12;;;;;;;10.35;8.15;;;0.60;99.90;;;;;;5024251;28;20087;-71
2021/12/08 03:52:39;;;;;;;10.88;8.07;;;0.60;99.90;;;;;;5019953;28;20022;-73
2021/12/08 03:55:06;;;;;;;8.75;7.38;;;0.60;99.90;;;;;;5018786;28;20503;-72
2021/12/08 03:57:32;;;;;;;8.63;7.72;;;0.60;99.90;;;;;;5023818;28;20054;-73
2021/12/08 03:59:58;;;;;;;9.45;8.05;;;0.60;99.90;;;;;;5024064;28;20521;-73
2021/12/08 04:02:23;;;;;;;11.43;8.63;;;0.60;99.90;;;;;;5020126;28;20049;-73
2021/12/08 04:04:51;;;;;;;10.85;8.52;;;0.60;99.90;;;;;;5015988;28;20480;-72
2021/12/08 04:07:18;;;;;;;12.07;8.40;;;0.60;99.90;;;;;;5019318;28;20032;-71
2021/12/08 04:09:48;;;;;;;10.93;8.88;;;0.60;99.90;;;;;;5017057;28;20553;-73
2021/12/08 04:12:18;;;;;;;14.82;10.23;;;0.70;99.90;;;;;;5023353;28;20054;-74
2021/12/08 04:14:57;;;;;;;21.38;11.80;;;0.70;99.90;;;;;;5010520;28;20021;-73
2021/12/08 04:17:40;;;;;;;12.00;9.77;;;0.70;99.90;;;;;;5021742;28;20379;-72
2021/12/08 04:20:17;;;;;;;15.05;10.32;;;0.70;99.90;;;;;;5011965;28;20469;-72
2021/12/08 04:22:46;;;;;;;11.48;9.20;;;0.70;99.90;;;;;;5025110;28;20108;-72
2021/12/08 04:25:18;;;;;;;11.05;9.13;;;0.70;99.90;;;;;;5010602;28;20021;-73
2021/12/08 04:27:46;;;;;;;13.20;9.45;;;0.70;99.90;;;;;;5025044;28;20025;-74
2021/12/08 04:30:34;;;;;;;12.40;10.25;;;0.70;99.90;;;;;;5021732;28;20032;-73
2021/12/08 04:33:00;;;;;;;13.43;9.85;;;0.70;99.90;;;;;;5018345;28;20044;-73
2021/12/08 04:35:27;;;;;;;11.45;9.40;;;0.70;99.90;;;;;;5013935;28;20025;-72
2021/12/08 04:37:58;;;;;;;10.63;8.45;;;0.70;99.90;;;;;;5025134;28;20388;-72
2021/12/08 04:43:16;;;;;;;12.25;9.95;;;0.70;99.90;;;;;;5024150;28;20014;-72
2021/12/08 04:46:04;;;;;;;10.32;9.23;;;0.70;99.90;;;;;;5011587;28;20503;-72
2021/12/08 04:49:07;;;;;;;11.60;8.80;;;0.80;99.90;;;;;;5010861;28;20026;-72
2021/12/08 05:00:19;;;;;;;9.70;7.55;;;0.80;99.90;;;;;;5018153;28;20034;-73
2021/12/08 05:03:01;;;;;;;8.48;6.65;;;1.00;99.90;;;;;;5019940;28;20072;-73
2021/12/08 05:08:18;;;;;;;8.02;6.15;;;1.00;99.90;;;;;;5011850;28;20032;-73
2021/12/08 05:10:44;;;;;;;9.27;7.20;;;1.10;99.90;;;;;;5019287;28;20022;-73
2021/12/08 05:13:13;;;;;;;7.70;6.38;;;1.10;99.90;;;;;;5017843;28;20097;-73
2021/12/08 05:15:53;;;;;;;9.10;6.57;;;1.10;99.90;;;;;;5021781;28;20511;-73
2021/12/08 05:18:21;;;;;;;10.27;7.28;;;1.10;99.90;;;;;;5024660;28;20034;-71
2021/12/08 05:21:02;;;;;;;8.13;6.68;;;1.10;99.90;;;;;;5026561;28;20025;-71
2021/12/08 05:23:36;;;;;;;8.43;7.10;;;1.10;99.90;;;;;;5009738;28;20033;-72
2021/12/08 05:26:12;;;;;;;10.40;7.25;;;1.00;99.90;;;;;;5019464;28;20022;-71
2021/12/08 05:28:41;;;;;;;8.15;7.07;;;1.00;99.90;;;;;;5015039;28;20021;-72
2021/12/08 05:31:12;;;;;;;9.35;6.97;;;1.00;99.90;;;;;;5014815;28;20100;-72
2021/12/08 05:33:40;;;;;;;10.32;7.40;;;1.00;99.90;;;;;;5022816;28;20033;-72
2021/12/08 05:36:06;;;;;;;9.63;7.55;;;1.00;99.90;;;;;;5014510;28;20022;-72
2021/12/08 05:38:32;;;;;;;13.77;10.30;;;1.00;99.90;;;;;;5015131;28;20062;-72
2021/12/08 05:41:20;;;;;;;12.40;9.43;;;1.00;99.90;;;;;;5013111;28;20117;-72
2021/12/08 05:43:47;;;;;;;18.00;15.18;;;1.00;99.90;;;;;;5014152;28;20037;-73
2021/12/08 05:46:15;;;;;;;15.73;10.18;;;1.00;99.90;;;;;;5014190;28;20037;-73
2021/12/08 05:48:41;;;;;;;12.68;9.60;;;1.00;99.90;;;;;;5027628;28;20030;-72
2021/12/08 05:51:16;;;;;;;10.32;9.20;;;0.90;99.90;;;;;;5022742;28;20051;-72
2021/12/08 05:53:44;;;;;;;11.80;9.60;;;0.90;99.90;;;;;;5021114;28;20033;-72
2021/12/08 05:56:11;;;;;;;10.45;9.18;;;0.90;99.90;;;;;;5034059;28;20075;-72
2021/12/08 05:58:37;;;;;;;13.30;9.40;;;0.80;99.90;;;;;;5020845;28;20104;-72
2021/12/08 06:01:12;;;;;;;11.55;9.73;;;0.90;99.90;;;;;;5022854;28;20037;-72
2021/12/08 06:03:41;;;;;;;11.52;10.13;;;0.90;99.90;;;;;;5013403;28;20017;-72
2021/12/08 06:06:08;;;;;;;12.20;9.82;;;0.80;99.90;;;;;;5025096;28;20021;-72
2021/12/08 06:08:34;;;;;;;13.43;11.18;;;0.80;99.90;;;;;;5015466;28;20029;-72
2021/12/08 06:11:03;;;;;;;15.40;11.07;;;0.80;99.90;;;;;;5013978;28;20075;-72
2021/12/08 06:13:28;;;;;;;12.95;10.32;;;0.80;99.90;;;;;;5013404;28;20447;-72
2021/12/08 06:15:55;;;;;;;14.13;11.30;;;0.70;99.90;;;;;;5011631;28;20111;-72
2021/12/08 06:18:23;;;;;;;13.32;11.88;;;0.70;99.90;;;;;;5013858;28;20388;-72
2021/12/08 06:20:51;;;;;;;15.07;11.45;;;0.70;99.90;;;;;;5013789;28;20049;-72
2021/12/08 06:23:17;;;;;;;12.43;10.48;;;0.70;99.90;;;;;;5012798;28;20468;-72
2021/12/08 06:25:43;;;;;;;14.13;12.10;;;0.60;99.90;;;;;;5013568;28;20046;-70
2021/12/08 06:28:09;;;;;;;12.77;11.40;;;0.60;99.90;;;;;;5032745;28;20096;-69
2021/12/08 06:30:38;;;;;;;14.50;11.88;;;0.60;99.90;;;;;;5020589;28;20061;-72
2021/12/08 06:33:04;;;;;;;15.15;11.88;;;0.60;99.90;;;;;;5026531;28;20026;-72
2021/12/08 06:35:47;;;;;;;14.98;11.80;;;0.60;99.90;;;;;;5015915;28;20041;-72
2021/12/08 06:38:14;;;;;;;15.27;12.38;;;0.60;99.90;;;;;;5005335;28;20029;-72
2021/12/08 06:40:39;;;;;;;16.63;13.95;;;0.70;99.90;;;;;;5015455;28;20053;-72
2021/12/08 06:43:09;;;;;;;16.80;13.93;;;0.60;99.90;;;;;;5019555;28;20110;-72
2021/12/08 06:45:39;;;;;;;23.70;21.20;;;0.70;99.90;;;;;;5021047;28;20033;-72
2021/12/08 06:48:11;;;;;;;15.38;13.70;;;0.70;99.90;;;;;;5013221;28;20395;-72
2021/12/08 06:50:42;;;;;;;19.35;14.27;;;0.60;99.90;;;;;;5018093;28;20026;-72
2021/12/08 06:53:09;;;;;;;22.45;17.98;;;0.70;99.90;;;;;;5028479;28;20449;-72
2021/12/08 06:55:46;;;;;;;20.55;16.13;;;0.70;99.90;;;;;;5018446;28;20025;-72
2021/12/08 06:58:18;;;;;;;16.70;14.55;;;0.70;99.90;;;;;;5018432;28;20022;-72
2021/12/08 07:03:49;;;;;;;17.02;13.55;;;0.70;99.90;;;;;;5013223;28;20025;-72
2021/12/08 07:06:41;;;;;;;17.17;13.05;;;0.70;99.90;;;;;;5026156;28;20021;-72
2021/12/08 07:09:10;;;;;;;16.58;12.10;;;0.80;99.90;;;;;;5022655;28;20073;-72
2021/12/08 07:11:35;;;;;;;15.80;10.60;;;0.80;99.90;;;;;;5011548;28;20057;-72
2021/12/08 07:14:02;;;;;;;12.40;10.90;;;0.80;99.90;;;;;;5021456;28;20114;-72
2021/12/08 07:16:32;;;;;;;10.93;9.80;;;0.80;99.90;;;;;;5032510;28;20033;-72
2021/12/08 07:19:08;;;;;;;10.77;9.68;;;0.80;99.90;;;;;;5032390;28;20033;-72
2021/12/08 07:21:38;;;;;;;13.38;10.05;;;0.80;99.90;;;;;;5030678;28;20033;-72
2021/12/08 07:24:14;;;;;;;12.35;11.10;;;0.90;99.90;;;;;;5030160;28;20030;-72
2021/12/08 07:26:40;;;;;;;17.48;11.43;;;0.90;99.90;;;;;;5025394;28;20022;-72
2021/12/08 07:29:09;;;;;;;11.63;10.27;;;0.90;99.90;;;;;;5012632;28;20073;-72
2021/12/08 07:31:40;;;;;;;15.05;12.40;;;0.90;99.90;;;;;;5012506;28;20026;-72
2021/12/08 07:34:08;;;;;;;16.55;13.98;;;0.90;99.90;;;;;;5010458;28;20028;-72
2021/12/08 07:36:38;;;;;;;17.73;14.95;;;0.90;99.90;;;;;;5011640;28;20510;-72
2021/12/08 07:39:12;;;;;;;16.90;14.00;;;1.00;99.90;;;;;;5010652;28;20092;-72
2021/12/08 07:41:41;;;;;;;14.85;12.23;;;1.00;99.90;;;;;;5012192;28;20026;-72
2021/12/08 07:44:12;;;;;;;10.90;9.38;;;1.00;99.90;;;;;;5023581;28;20072;-72
2021/12/08 07:46:46;;;;;;;11.55;9.80;;;1.00;99.90;;;;;;5003746;28;20030;-72
2021/12/08 07:49:24;;;;;;;15.05;9.82;;;1.00;99.90;;;;;;5018108;28;20108;-72
2021/12/08 07:51:51;;;;;;;12.60;10.00;;;1.00;99.90;;;;;;5031331;28;20025;-72
2021/12/08 07:54:19;;;;;;;13.57;10.98;;;1.00;99.90;;;;;;5010897;28;20026;-72
2021/12/08 07:56:48;;;;;;;11.07;9.55;;;1.10;99.90;;;;;;5008968;28;20030;-72
2021/12/08 07:59:17;;;;;;;12.98;9.43;;;1.10;99.90;;;;;;5011619;28;20076;-72
2021/12/08 08:01:47;;;;;;;12.68;9.80;;;1.10;99.90;;;;;;5017722;28;20025;-72
2021/12/08 08:04:16;;;;;;;13.10;11.07;;;1.10;99.90;;;;;;5011966;28;20125;-72
2021/12/08 08:06:46;;;;;;;11.57;10.38;;;1.00;99.90;;;;;;5015552;28;20424;-72
2021/12/08 08:09:17;;;;;;;11.38;9.88;;;1.00;99.90;;;;;;5020124;28;20021;-72
2021/12/08 08:11:48;;;;;;;14.52;11.23;;;1.00;99.90;;;;;;5016689;28;20025;-72
2021/12/08 08:14:19;;;;;;;13.68;11.18;;;1.10;99.90;;;;;;5019798;28;20034;-71
2021/12/08 08:16:50;;;;;;;13.95;11.10;;;1.00;99.90;;;;;;5025260;28;20029;-71
2021/12/08 08:19:18;;;;;;;13.88;11.20;;;1.00;99.90;;;;;;5018036;28;20037;-73
2021/12/08 08:21:48;;;;;;;13.57;10.95;;;1.00;99.90;;;;;;5017293;28;20029;-72
2021/12/08 08:24:14;;;;;;;14.30;10.85;;;1.00;99.90;;;;;;5011419;28;20030;-72
2021/12/08 08:26:42;;;;;;;13.32;10.68;;;1.00;99.90;;;;;;5018098;28;20021;-72
2021/12/08 08:29:10;;;;;;;12.23;10.05;;;1.00;99.90;;;;;;5017146;28;20096;-73
2021/12/08 08:31:41;;;;;;;13.25;10.85;;;1.00;99.90;;;;;;5011042;28;20034;-73
2021/12/08 08:34:07;;;;;;;13.57;11.10;;;1.10;99.90;;;;;;5010652;28;20076;-73
2021/12/08 08:36:38;;;;;;;13.85;11.98;;;1.00;99.90;;;;;;5011952;28;20076;-72
2021/12/08 08:39:40;;;;;;;13.48;11.52;;;1.00;99.90;;;;;;5011496;28;20034;-73
2021/12/08 08:42:08;;;;;;;11.80;10.57;;;1.10;99.90;;;;;;4996468;28;20507;-72
2021/12/08 08:44:45;;;;;;;13.40;11.18;;;1.00;99.90;;;;;;5007556;28;20480;-72
2021/12/08 08:47:16;;;;;;;10.50;9.40;;;1.10;99.90;;;;;;5010285;28;20021;-71
2021/12/08 08:49:43;;;;;;;13.77;10.52;;;1.20;99.90;;;;;;5013701;28;20034;-73
2021/12/08 08:52:22;;;;;;;11.90;10.32;;;1.20;99.90;;;;;;5007645;28;20105;-73
2021/12/08 08:54:52;;;;;;;11.68;9.85;;;1.10;99.90;;;;;;5012737;28;20045;-72
2021/12/08 08:57:25;;;;;;;10.98;9.70;;;1.10;99.90;;;;;;5021787;28;20022;-73
2021/12/08 09:00:05;;;;;;;10.55;8.82;;;1.20;99.90;;;;;;5018658;28;20400;-72
2021/12/08 09:02:38;;;;;;;10.45;9.30;;;1.20;99.90;;;;;;5006009;28;20030;-73
2021/12/08 09:05:11;;;;;;;11.32;9.93;;;1.30;99.90;;;;;;5015143;28;20010;-72
2021/12/08 09:07:42;;;;;;;14.57;11.25;;;1.40;99.90;;;;;;5026437;28;20013;-72
2021/12/08 09:10:15;;;;;;;13.73;12.30;;;1.50;99.90;;;;;;5028946;28;20026;-72
2021/12/08 09:12:54;;;;;;;16.52;13.75;;;1.50;99.90;;;;;;5027999;28;20651;-72
2021/12/08 09:15:34;;;;;;;17.58;15.25;;;1.70;99.90;;;;;;5010899;28;20029;-72
2021/12/08 09:18:08;;;;;;;17.83;15.23;;;1.70;99.90;;;;;;5014229;28;20037;-73
2021/12/08 09:20:57;;;;;;;16.08;13.98;;;1.70;99.90;;;;;;5014942;28;20057;-72
2021/12/08 09:23:38;;;;;;;12.80;10.98;;;1.70;99.90;;;;;;5002603;28;20468;-72
2021/12/08 09:26:07;;;;;;;12.40;8.95;;;1.60;99.90;;;;;;5010976;28;20026;-72
2021/12/08 09:28:42;;;;;;;10.55;9.52;;;1.50;99.90;;;;;;5013664;28;20033;-72
2021/12/08 09:31:16;;;;;;;15.35;11.85;;;1.40;99.90;;;;;;5014730;28;20080;-73
2021/12/08 09:33:50;;;;;;;18.13;13.70;;;1.20;99.90;;;;;;5014837;28;20033;-72
2021/12/08 09:36:20;;;;;;;17.67;13.43;;;1.20;99.90;;;;;;5013645;28;20492;-72
2021/12/08 09:38:51;;;;;;;15.85;12.88;;;1.10;99.90;;;;;;5015072;28;20510;-73
2021/12/08 09:41:29;;;;;;;17.55;12.25;;;1.20;99.90;;;;;;5013995;28;20431;-72
2021/12/08 09:44:04;;;;;;;15.70;11.75;;;1.30;99.90;;;;;;5013156;28;20057;-72
2021/12/08 09:46:42;;;;;;;14.05;11.43;;;1.30;99.90;;;;;;5014711;28;20053;-72
2021/12/08 09:49:10;;;;;;;15.52;12.00;;;1.40;99.90;;;;;;5014622;28;20025;-71
2021/12/08 09:51:37;;;;;;;15.30;11.35;;;1.40;99.90;;;;;;5014440;28;20476;-73
2021/12/08 09:54:03;;;;;;;17.10;14.82;;;1.50;99.90;;;;;;5019432;28;20037;-72
2021/12/08 09:56:30;;;;;;;21.30;17.00;;;1.40;99.90;;;;;;5034222;28;20018;-71
2021/12/08 09:58:56;;;;;;;19.67;17.38;;;1.50;99.90;;;;;;5032776;28;20028;-72
2021/12/08 10:01:24;;;;;;;23.52;19.30;;;1.60;99.90;;;;;;5032643;28;20518;-72
2021/12/08 10:03:52;;;;;;;21.27;17.55;;;1.60;99.90;;;;;;5034128;28;20494;-72
2021/12/08 10:06:19;;;;;;;18.60;15.77;;;1.70;99.90;;;;;;5032872;28;20033;-72
2021/12/08 10:08:46;;;;;;;19.35;15.93;;;1.70;99.90;;;;;;5032615;28;20025;-72
2021/12/08 10:11:13;;;;;;;18.80;15.63;;;1.80;99.90;;;;;;5031317;28;20491;-71
2021/12/08 10:13:40;;;;;;;20.63;16.35;;;1.80;99.90;;;;;;5013723;28;20480;-73
2021/12/08 10:16:07;;;;;;;17.45;14.02;;;1.80;99.90;;;;;;5012078;28;20444;-72
2021/12/08 10:18:33;;;;;;;16.42;12.98;;;1.80;99.90;;;;;;5015414;28;20029;-72
2021/12/08 10:20:59;;;;;;;15.77;12.80;;;1.80;99.90;;;;;;5012016;28;20477;-73
2021/12/08 10:23:34;;;;;;;16.27;13.20;;;2.00;99.90;;;;;;5014092;28;20056;-72
2021/12/08 10:26:08;;;;;;;20.95;14.48;;;1.90;99.90;;;;;;5012985;28;20025;-72
2021/12/08 10:28:38;;;;;;;17.65;15.43;;;1.70;99.90;;;;;;5017348;28;20087;-72
2021/12/08 10:31:12;;;;;;;19.02;13.65;;;1.60;99.90;;;;;;5015359;28;20100;-72
2021/12/08 10:34:04;;;;;;;18.45;15.32;;;1.60;99.90;;;;;;5013284;28;20026;-72
2021/12/08 10:39:15;;;;;;;19.05;15.75;;;1.70;99.90;;;;;;5033759;28;20033;-71
2021/12/08 10:41:50;;;;;;;18.60;14.60;;;1.60;99.90;;;;;;5023375;28;20026;-72
2021/12/08 10:44:24;;;;;;;17.13;14.45;;;1.50;99.90;;;;;;5013243;28;20134;-72
2021/12/08 10:46:57;;;;;;;19.92;15.43;;;1.60;99.90;;;;;;5013587;28;20030;-72
2021/12/08 10:54:24;;;;;;;18.35;16.40;;;1.50;99.90;;;;;;5011856;28;20085;-72
2021/12/08 10:55:17;;;;;;;18.00;16.10;;;1.80;99.90;;;;;;4947556;29;20110;-72
2021/12/08 10:57:50;;;;;;;19.83;15.32;;;1.80;99.90;;;;;;5004698;28;20041;-72
2021/12/08 11:00:30;;;;;;;19.95;16.27;;;1.90;99.90;;;;;;5022362;28;20057;-72
2021/12/08 11:03:07;;;;;;;17.88;15.82;;;1.90;99.90;;;;;;5013269;28;20026;-72
2021/12/08 11:05:43;;;;;;;18.65;14.63;;;2.00;99.90;;;;;;5004328;28;20026;-72
2021/12/08 11:08:14;;;;;;;19.63;15.10;;;2.00;99.90;;;;;;5008167;28;20092;-72
2021/12/08 11:11:04;;;;;;;27.73;24.83;;;2.00;99.90;;;;;;5009486;28;20052;-72
2021/12/08 11:13:33;;;;;;;21.27;18.80;;;2.10;99.90;;;;;;5010151;28;20514;-72
2021/12/08 11:16:24;;;;;;;16.98;14.90;;;2.10;99.90;;;;;;5028031;28;20029;-72
2021/12/08 11:18:52;;;;;;;18.65;14.98;;;2.20;99.90;;;;;;5019336;28;20488;-72
2021/12/08 11:21:24;;;;;;;18.25;15.02;;;2.20;99.90;;;;;;5012434;28;20108;-72
2021/12/08 11:23:52;;;;;;;19.60;15.45;;;2.20;99.90;;;;;;5029102;28;20480;-73
2021/12/08 11:26:27;;;;;;;17.90;15.75;;;2.10;99.90;;;;;;5023388;28;20620;-73
2021/12/08 11:29:12;;;;;;;18.75;16.05;;;2.10;99.90;;;;;;5016242;28;20061;-72
2021/12/08 11:31:43;;;;;;;20.93;16.63;;;2.10;99.90;;;;;;5025838;28;20108;-71
2021/12/08 11:34:34;;;;;;;17.90;15.38;;;2.10;99.90;;;;;;5025166;28;20267;-72
2021/12/08 11:37:03;;;;;;;18.48;15.80;;;2.10;99.90;;;;;;5010654;28;20052;-72
2021/12/08 11:39:38;;;;;;;20.05;16.80;;;1.90;99.90;;;;;;5021463;28;20022;-72
2021/12/08 11:42:10;;;;;;;20.05;16.88;;;1.90;99.90;;;;;;5009192;28;20428;-73
2021/12/08 11:44:39;;;;;;;20.20;16.90;;;1.90;99.90;;;;;;5011832;28;20014;-73
2021/12/08 11:47:08;;;;;;;20.08;16.77;;;1.90;99.90;;;;;;5020421;28;20045;-73
2021/12/08 11:49:39;;;;;;;20.27;16.83;;;1.90;99.90;;;;;;5026515;28;20014;-72
2021/12/08 11:52:13;;;;;;;20.10;17.90;;;1.80;99.90;;;;;;5016428;28;20038;-72
2021/12/08 11:55:02;;;;;;;22.80;18.00;;;2.10;99.90;;;;;;5025090;28;20021;-73
2021/12/08 11:57:37;;;;;;;19.30;17.13;;;1.90;99.90;;;;;;5015866;28;20399;-72
2021/12/08 12:00:11;;;;;;;20.85;17.88;;;1.90;99.90;;;;;;5014904;28;20025;-72
2021/12/08 12:02:45;;;;;;;22.80;17.52;;;2.00;99.90;;;;;;5026370;28;20017;-73
2021/12/08 12:05:17;;;;;;;21.77;17.67;;;2.10;99.90;;;;;;5018637;28;20014;-73
2021/12/08 12:07:43;;;;;;;19.85;16.17;;;2.00;99.90;;;;;;5025521;28;20025;-72
2021/12/08 12:10:11;;;;;;;19.73;16.90;;;2.10;99.90;;;;;;5018910;28;20022;-73
2021/12/08 12:12:39;;;;;;;19.00;16.38;;;2.20;99.90;;;;;;5023884;28;20065;-72
2021/12/08 12:15:07;;;;;;;18.75;16.73;;;2.20;99.90;;;;;;5014356;28;20057;-72
2021/12/08 12:17:34;;;;;;;21.77;17.65;;;2.20;99.90;;;;;;5023877;28;20393;-73
2021/12/08 12:20:06;;;;;;;19.58;16.55;;;2.30;99.90;;;;;;5016635;28;20523;-72
2021/12/08 12:23:00;;;;;;;21.08;16.75;;;2.10;99.90;;;;;;5009790;28;20399;-73
2021/12/08 12:25:50;;;;;;;19.48;16.83;;;2.10;99.90;;;;;;5006902;28;20021;-73
2021/12/08 12:28:36;;;;;;;19.13;16.52;;;2.10;99.90;;;;;;5011513;28;20499;-72
2021/12/08 12:31:21;;;;;;;18.52;15.80;;;2.20;99.90;;;;;;5014175;28;20033;-72
2021/12/08 12:33:50;;;;;;;19.40;15.95;;;2.20;99.90;;;;;;5018719;28;20021;-72
2021/12/08 12:36:34;;;;;;;22.02;18.27;;;2.30;99.90;;;;;;5020325;28;20591;-72
2021/12/08 12:39:20;;;;;;;19.95;16.77;;;2.30;99.90;;;;;;5024644;28;20026;-73
2021/12/08 12:42:15;;;;;;;18.55;16.33;;;2.20;99.90;;;;;;5026439;28;20379;-72
2021/12/08 12:45:02;;;;;;;17.70;15.82;;;2.20;99.90;;;;;;5023210;28;20057;-72
2021/12/08 12:47:30;;;;;;;18.50;16.52;;;2.20;99.90;;;;;;5027981;28;20392;-72
2021/12/08 12:50:21;;;;;;;19.23;16.13;;;2.00;99.90;;;;;;5032768;28;20022;-72
2021/12/08 12:52:56;;;;;;;21.08;17.50;;;2.20;99.90;;;;;;5026278;28;20025;-72
2021/12/08 12:55:32;;;;;;;19.77;17.25;;;2.20;99.90;;;;;;5028493;28;20033;-73
2021/12/08 12:58:04;;;;;;;;;;;2.10;99.90;;;;;;5030026;28;20086;-72
2021/12/08 13:00:41;;;;;;;21.10;17.20;;;2.20;99.90;;;;;;5027702;28;20367;-73
2021/12/08 13:03:07;;;;;;;20.63;16.77;;;2.20;99.90;;;;;;5019413;28;20104;-74
2021/12/08 13:05:51;;;;;;;18.85;16.40;;;2.10;99.90;;;;;;5025810;28;20029;-74
2021/12/08 13:08:40;;;;;;;19.17;16.90;;;2.20;99.90;;;;;;5021721;28;20109;-73
2021/12/08 13:11:41;;;;;;;20.13;17.27;;;2.30;99.90;;;;;;5015605;28;20476;-73
2021/12/08 13:14:20;;;;;;;20.42;16.55;;;2.40;99.90;;;;;;5029315;28;20029;-73
2021/12/08 13:16:47;;;;;;;19.55;16.63;;;2.40;99.90;;;;;;5028822;28;20391;-73
2021/12/08 13:19:13;;;;;;;21.05;18.10;;;2.20;99.90;;;;;;5029481;28;20506;-73
2021/12/08 13:21:47;;;;;;;24.77;21.10;;;2.20;99.90;;;;;;5026039;28;20026;-73
2021/12/08 13:24:39;;;;;;;26.95;23.30;;;2.10;99.90;;;;;;5029269;28;20087;-73
2021/12/08 13:27:13;;;;;;;26.20;21.13;;;2.00;99.90;;;;;;5029415;28;20440;-73
2021/12/08 13:29:42;;;;;;;22.35;20.05;;;2.10;99.90;;;;;;5028649;28;20025;-73
2021/12/08 13:32:11;;;;;;;22.52;19.65;;;2.10;99.90;;;;;;5029364;28;20021;-73
2021/12/08 13:34:42;;;;;;;20.70;18.15;;;2.10;99.90;;;;;;5026109;28;20026;-72
2021/12/08 13:37:31;;;;;;;18.20;16.27;;;2.00;99.90;;;;;;5034143;28;20017;-72
2021/12/08 13:40:10;;;;;;;20.80;18.70;;;2.00;99.90;;;;;;5027740;28;20106;-73
2021/12/08 13:43:02;;;;;;;18.05;16.25;;;2.00;99.90;;;;;;5026083;28;20018;-72
2021/12/08 13:45:41;;;;;;;17.63;15.77;;;2.10;99.90;;;;;;5024590;28;20051;-72